Huvudsida
METAR-TAF:

METAR-TAF

Flygplatser :

Princess Juliana internationella flygplats

Sint Maarten, Nederländska Antillerna

latitud: 18-03N, longitud: 063-07W, höjd: 4 m

Aktuellt väderrapport

Denna rapport gjordes för 25 minuter sedan, klockan 11:00 UTC
Vind 10 kt från ost, varierande mellan nordost och ost/sydost
Temperatur 26°C
Fuktighet 79%
Tryck 1019 hPa
Sikt 10 km eller mer
Få moln på en höjd av 1800 ft

METAR: TNCM 241100Z 08010KT 050V110 9999 FEW018 26/22 Q1019 NOSIG RMK A3009 LGT HZ NERN QUAD

Tid: 07:25 (11:25 UTC)

Väderprognos

Denna rapport gjordes för 6 timmar och 5 minuter sedan, klockan 05:20 UTC
Prognos gäller från 24 kl. 06 UTC till 25 kl. 06 UTC
Vind 6 kt från ost/nordost
Sikt: 10 km
Spridda moln på en höjd av 1800 ft
skurar i närheten
Från 24 kl. 1400 UTC
Vind 13 kt från ost
Sikt: 10 km
Spridda moln på en höjd av 2000 ft

TAF: TNCM 240520Z 2406/2506 07006KT P6SM VCSH SCT018 FM241400 10013KT P6SM SCT020

Aktuella väderrapporter och prognoser från 4000 flygplatser (METAR- och TAF-rapporter).

De tillgängliga stationerna syns som gula och röda prickar på kartan.

För musen över prickarna för att se namnen på stationerna.

Klicka sedan för att få väderrapporter och prognoser.

För att ändra kartan: Klicka på de gröna knapparna med ett svart kors på för att zooma in; den gröna knappen med ett streck på för att zooma ut; eller på de gröna pilarna för angränsande kartor.


METAR-TAF: